createdAt,value
2023-02-06T00:01:05.136Z,79.76
2023-02-06T00:04:29.473Z,79.61
2023-02-06T00:08:27.238Z,79.26
2023-02-06T00:12:10.726Z,78.94
2023-02-06T00:15:35.638Z,78.48
2023-02-06T00:19:31.837Z,78.33
2023-02-06T00:23:14.656Z,78.07
2023-02-06T00:26:38.637Z,78.64
2023-02-06T00:30:17.523Z,78.72
2023-02-06T00:33:54.190Z,78.04
2023-02-06T00:37:31.812Z,78.66
2023-02-06T00:41:09.753Z,78.67
2023-02-06T00:45:07.375Z,77.22
2023-02-06T00:48:50.904Z,75.71
2023-02-06T00:52:15.045Z,77.05
2023-02-06T00:56:16.142Z,77.25
2023-02-06T00:59:58.962Z,77.86
2023-02-06T01:03:24.345Z,77.83
2023-02-06T01:07:22.119Z,78.00
2023-02-06T01:11:13.707Z,78.27
2023-02-06T01:14:39.382Z,78.64
2023-02-06T01:18:15.570Z,79.13
2023-02-06T01:21:53.687Z,79.23
2023-02-06T01:25:49.767Z,79.30
2023-02-06T01:29:32.729Z,78.78
2023-02-06T01:33:16.173Z,78.52
2023-02-06T01:37:01.822Z,78.91
2023-02-06T01:40:28.154Z,79.16
2023-02-06T01:44:17.379Z,79.13
2023-02-06T01:47:44.536Z,79.39
2023-02-06T01:51:41.422Z,79.11
2023-02-06T01:55:06.761Z,79.25
2023-02-06T01:58:46.884Z,79.57
2023-02-06T02:02:24.643Z,79.76
2023-02-06T02:06:05.929Z,79.26
2023-02-06T02:09:56.491Z,79.04
2023-02-06T02:13:20.803Z,78.93
2023-02-06T02:17:40.635Z,78.99
2023-02-06T02:21:38.869Z,79.58
2023-02-06T02:25:59.684Z,79.78
2023-02-06T02:29:48.648Z,79.95
2023-02-06T02:33:28.346Z,79.64
2023-02-06T02:37:24.980Z,79.51
2023-02-06T02:41:19.411Z,79.55
2023-02-06T02:44:57.378Z,78.98
2023-02-06T02:48:45.060Z,79.03
2023-02-06T02:52:30.810Z,78.65
2023-02-06T02:55:55.991Z,78.92
2023-02-06T02:59:51.794Z,78.91
2023-02-06T03:03:22.789Z,79.27
2023-02-06T03:07:15.481Z,79.50
2023-02-06T03:11:15.796Z,79.62
2023-02-06T03:14:48.270Z,79.08
2023-02-06T03:18:24.413Z,78.62
2023-02-06T03:22:15.870Z,78.62
2023-02-06T03:25:44.353Z,78.61
2023-02-06T03:29:19.700Z,78.82
2023-02-06T03:33:07.448Z,79.35
2023-02-06T03:36:52.798Z,79.49
2023-02-06T03:40:18.301Z,80.19
2023-02-06T03:43:55.417Z,80.04
2023-02-06T03:47:53.504Z,80.24
2023-02-06T03:52:10.913Z,80.21
2023-02-06T03:55:38.642Z,80.66
2023-02-06T03:59:14.301Z,80.23
2023-02-06T04:02:53.493Z,80.13
2023-02-06T04:06:28.849Z,80.15
2023-02-06T04:10:06.868Z,80.09
2023-02-06T04:14:03.390Z,80.82
2023-02-06T04:17:59.541Z,80.48
2023-02-06T04:21:28.239Z,80.54
2023-02-06T04:25:27.971Z,80.55
2023-02-06T04:29:12.212Z,80.42
2023-02-06T04:32:36.652Z,80.11
2023-02-06T04:36:14.466Z,80.04
2023-02-06T04:40:11.462Z,80.02
2023-02-06T04:43:39.519Z,80.45
2023-02-06T04:47:13.809Z,81.08
2023-02-06T04:50:51.867Z,80.60
2023-02-06T04:54:31.216Z,80.54
2023-02-06T04:58:07.987Z,80.71
2023-02-06T05:01:46.148Z,80.97
2023-02-06T05:05:41.005Z,80.58
2023-02-06T05:09:06.074Z,80.45
2023-02-06T05:12:42.997Z,80.66
2023-02-06T05:16:20.590Z,80.75
2023-02-06T05:19:58.720Z,80.60
2023-02-06T05:23:54.909Z,80.66
2023-02-06T05:27:37.770Z,80.24
2023-02-06T05:31:21.540Z,80.46
2023-02-06T05:34:45.879Z,80.42
2023-02-06T05:38:43.565Z,80.54
2023-02-06T05:42:11.446Z,80.37
2023-02-06T05:46:06.515Z,80.43
2023-02-06T05:49:30.316Z,80.44
2023-02-06T05:53:28.285Z,80.02
2023-02-06T05:57:11.004Z,80.12
2023-02-06T06:00:34.966Z,79.80
2023-02-06T06:04:13.336Z,80.05
2023-02-06T06:08:09.329Z,79.77
2023-02-06T06:11:34.334Z,80.01
2023-02-06T06:15:29.902Z,80.51
2023-02-06T06:19:12.586Z,80.87
2023-02-06T06:22:36.466Z,81.07
2023-02-06T06:26:16.147Z,81.15
2023-02-06T06:30:11.466Z,81.10
2023-02-06T06:33:36.446Z,80.94
2023-02-06T06:37:32.219Z,80.77
2023-02-06T06:41:15.749Z,80.36
2023-02-06T06:44:58.480Z,80.42
2023-02-06T06:48:41.367Z,80.59
2023-02-06T06:54:10.113Z,81.09
2023-02-06T06:58:06.687Z,80.85
2023-02-06T07:01:53.332Z,80.88
2023-02-06T07:05:15.993Z,80.88
2023-02-06T07:09:12.462Z,80.91
2023-02-06T07:12:54.408Z,80.93
2023-02-06T07:16:35.376Z,80.96
2023-02-06T07:19:57.541Z,81.23
2023-02-06T07:23:38.818Z,81.61
2023-02-06T07:27:13.278Z,81.48
2023-02-06T07:30:50.760Z,81.44
2023-02-06T07:34:47.105Z,81.23
2023-02-06T07:38:29.215Z,81.22
2023-02-06T07:42:11.332Z,81.07
2023-02-06T07:46:12.778Z,81.09
2023-02-06T07:49:34.947Z,80.80
2023-02-06T07:53:12.752Z,81.10
2023-02-06T07:57:09.789Z,81.06
2023-02-06T08:00:50.978Z,81.35
2023-02-06T08:04:34.953Z,81.44
2023-02-06T08:08:16.334Z,81.32
2023-02-06T08:11:38.817Z,81.71
2023-02-06T08:15:35.625Z,81.41
2023-02-06T08:18:57.713Z,81.06
2023-02-06T08:22:54.917Z,81.40
2023-02-06T08:26:18.872Z,81.22
2023-02-06T08:29:54.591Z,81.23
2023-02-06T08:33:51.745Z,81.46
2023-02-06T08:37:14.205Z,81.39
2023-02-06T08:41:17.536Z,81.21
2023-02-06T08:44:58.590Z,81.14
2023-02-06T08:48:20.565Z,80.98
2023-02-06T08:51:59.135Z,80.93
2023-02-06T08:55:59.689Z,80.88
2023-02-06T08:59:40.949Z,80.39
2023-02-06T09:03:22.586Z,80.71
2023-02-06T09:06:48.856Z,79.45
2023-02-06T09:10:27.746Z,79.17
2023-02-06T09:14:02.783Z,79.63
2023-02-06T09:17:56.933Z,79.67
2023-02-06T09:21:26.326Z,79.21
2023-02-06T09:25:15.510Z,79.15
2023-02-06T09:29:02.408Z,79.20
2023-02-06T09:32:43.926Z,78.88
2023-02-06T09:36:25.111Z,79.33
2023-02-06T09:39:47.411Z,78.54
2023-02-06T09:43:25.903Z,77.27
2023-02-06T09:47:27.900Z,78.12
2023-02-06T09:51:11.833Z,78.26
2023-02-06T09:54:45.891Z,78.12
2023-02-06T09:58:49.618Z,78.47
2023-02-06T10:02:39.954Z,78.64
2023-02-06T10:06:33.458Z,77.60
2023-02-06T10:10:04.987Z,77.86
2023-02-06T10:13:59.489Z,77.49
2023-02-06T10:17:32.576Z,77.28
2023-02-06T10:21:50.253Z,76.88
2023-02-06T10:25:39.677Z,77.02
2023-02-06T10:29:01.684Z,77.40
2023-02-06T10:33:24.762Z,77.01
2023-02-06T10:37:47.135Z,77.73
2023-02-06T10:41:46.518Z,77.03
2023-02-06T10:45:39.061Z,76.75
2023-02-06T10:49:24.493Z,76.61
2023-02-06T10:52:48.616Z,75.91
2023-02-06T10:56:31.717Z,75.78
2023-02-06T11:00:12.367Z,75.89
2023-02-06T11:04:20.843Z,75.11
2023-02-06T11:08:13.100Z,76.15
2023-02-06T11:11:56.332Z,76.11
2023-02-06T11:15:27.472Z,75.95
2023-02-06T11:19:32.925Z,75.98
2023-02-06T11:22:55.223Z,75.10
2023-02-06T11:26:32.817Z,74.02
2023-02-06T11:30:34.342Z,74.72
2023-02-06T11:33:57.015Z,74.31
2023-02-06T11:38:05.154Z,74.11
2023-02-06T11:42:20.077Z,74.44
2023-02-06T11:45:42.630Z,74.75
2023-02-06T11:49:38.552Z,73.31
2023-02-06T11:53:26.055Z,74.96
2023-02-06T11:57:03.341Z,72.77
2023-02-06T12:00:51.505Z,73.33
2023-02-06T12:04:40.012Z,73.50
2023-02-06T12:08:22.586Z,73.14
2023-02-06T12:11:51.536Z,72.35
2023-02-06T12:15:45.465Z,71.50
2023-02-06T12:19:31.105Z,71.87
2023-02-06T12:23:06.445Z,71.17
2023-02-06T12:26:33.616Z,70.58
2023-02-06T12:30:35.528Z,70.96
2023-02-06T12:34:10.721Z,70.30
2023-02-06T12:38:00.500Z,70.82
2023-02-06T12:41:50.024Z,69.13
2023-02-06T12:45:45.497Z,69.68
2023-02-06T12:49:36.369Z,69.63
2023-02-06T12:53:28.775Z,70.00
2023-02-06T12:57:03.324Z,68.21
2023-02-06T13:01:12.063Z,66.35
2023-02-06T13:05:07.025Z,63.60
2023-02-06T13:08:39.884Z,67.25
2023-02-06T13:12:14.666Z,66.15
2023-02-06T13:15:53.775Z,66.49
2023-02-06T13:19:37.113Z,65.09
2023-02-06T13:23:12.445Z,66.74
2023-02-06T13:26:51.601Z,66.97
2023-02-06T13:30:30.905Z,66.65
2023-02-06T13:33:58.258Z,66.33
2023-02-06T13:38:10.963Z,66.78
2023-02-06T13:41:52.905Z,67.25
2023-02-06T13:45:47.415Z,65.14
2023-02-06T13:49:35.286Z,65.54
2023-02-06T13:53:15.195Z,65.72
2023-02-06T13:56:59.856Z,66.39
2023-02-06T14:00:47.094Z,67.76
2023-02-06T14:04:15.346Z,66.26
2023-02-06T14:08:06.607Z,66.85
2023-02-06T14:12:34.931Z,67.32
2023-02-06T14:16:30.148Z,66.78
2023-02-06T14:20:30.405Z,65.95
2023-02-06T14:24:25.301Z,65.85
2023-02-06T14:28:29.260Z,67.15
2023-02-06T14:32:25.977Z,65.95
2023-02-06T14:36:23.482Z,65.89
2023-02-06T14:40:20.034Z,65.45
2023-02-06T14:44:02.022Z,66.42
2023-02-06T14:47:28.703Z,67.17
2023-02-06T14:51:02.508Z,66.53
2023-02-06T14:54:58.732Z,66.49
2023-02-06T14:58:30.366Z,66.74
2023-02-06T15:02:24.513Z,66.81
2023-02-06T15:06:30.309Z,67.19
2023-02-06T15:09:59.110Z,67.79
2023-02-06T15:13:52.736Z,68.12
2023-02-06T15:17:22.805Z,68.05
2023-02-06T15:21:00.587Z,68.56
2023-02-06T15:25:26.606Z,68.87
2023-02-06T15:28:56.651Z,69.14
2023-02-06T15:32:37.792Z,69.11
2023-02-06T15:36:04.896Z,69.28
2023-02-06T15:39:42.173Z,69.01
2023-02-06T15:43:40.968Z,69.18
2023-02-06T15:47:07.797Z,68.82
2023-02-06T15:50:40.859Z,67.60
2023-02-06T15:54:24.275Z,67.87
2023-02-06T15:57:58.638Z,68.03
2023-02-06T16:01:56.885Z,68.53
2023-02-06T16:05:40.846Z,68.13
2023-02-06T16:09:07.519Z,68.36
2023-02-06T16:12:43.425Z,68.88
2023-02-06T16:16:25.192Z,69.64
2023-02-06T16:20:03.123Z,69.96
2023-02-06T16:23:48.995Z,69.92
2023-02-06T16:27:32.825Z,70.45
2023-02-06T16:31:14.727Z,70.30
2023-02-06T16:34:56.309Z,70.57
2023-02-06T16:38:18.982Z,70.96
2023-02-06T16:41:56.261Z,70.84
2023-02-06T16:45:34.078Z,71.12
2023-02-06T16:49:14.385Z,71.53
2023-02-06T16:52:58.745Z,71.91
2023-02-06T16:56:46.458Z,71.77
2023-02-06T17:00:33.771Z,72.32
2023-02-06T17:04:15.425Z,72.32
2023-02-06T17:07:57.000Z,72.36
2023-02-06T17:11:38.335Z,71.94
2023-02-06T17:15:19.963Z,72.52
2023-02-06T17:18:42.112Z,72.57
2023-02-06T17:22:20.810Z,72.77
2023-02-06T17:26:22.184Z,72.42
2023-02-06T17:30:03.740Z,72.42
2023-02-06T17:33:25.918Z,72.75
2023-02-06T17:37:08.044Z,72.67
2023-02-06T17:40:41.913Z,72.83
2023-02-06T17:44:38.282Z,73.12
2023-02-06T17:48:19.189Z,73.19
2023-02-06T17:51:43.267Z,73.66
2023-02-06T17:55:38.253Z,73.75
2023-02-06T17:59:01.180Z,73.90
2023-02-06T18:02:38.059Z,74.07
2023-02-06T18:06:35.858Z,74.24
2023-02-06T18:09:58.015Z,74.70
2023-02-06T18:13:55.361Z,74.14
2023-02-06T18:17:18.693Z,74.54
2023-02-06T18:21:15.529Z,75.32
2023-02-06T18:24:37.453Z,74.98
2023-02-06T18:28:17.389Z,74.82
2023-02-06T18:32:12.650Z,74.34
2023-02-06T18:35:45.111Z,74.61
2023-02-06T18:39:13.521Z,74.60
2023-02-06T18:42:56.330Z,75.05
2023-02-06T18:46:28.444Z,75.21
2023-02-06T18:50:06.359Z,74.71
2023-02-06T18:54:02.674Z,74.33
2023-02-06T18:57:24.792Z,74.35
2023-02-06T19:01:23.894Z,74.57
2023-02-06T19:04:46.310Z,74.73
2023-02-06T19:08:23.405Z,74.83
2023-02-06T19:12:02.622Z,74.77
2023-02-06T19:15:39.145Z,74.58
2023-02-06T19:19:17.238Z,74.21
2023-02-06T19:22:55.403Z,74.06
2023-02-06T19:26:51.380Z,74.06
2023-02-06T19:30:13.900Z,73.76
2023-02-06T19:34:10.726Z,73.92
2023-02-06T19:37:51.458Z,73.90
2023-02-06T19:41:19.217Z,73.72
2023-02-06T19:45:10.577Z,74.04
2023-02-06T19:48:35.238Z,74.18
2023-02-06T19:52:14.516Z,74.44
2023-02-06T19:56:07.680Z,74.55
2023-02-06T19:59:49.215Z,74.59
2023-02-06T20:03:11.610Z,74.50
2023-02-06T20:07:08.004Z,74.64
2023-02-06T20:10:30.442Z,75.07
2023-02-06T20:14:09.220Z,75.40
2023-02-06T20:17:45.225Z,75.82
2023-02-06T20:21:29.490Z,75.23
2023-02-06T20:25:00.656Z,75.36
2023-02-06T20:28:38.086Z,75.35
2023-02-06T20:32:19.524Z,75.55
2023-02-06T20:35:53.468Z,75.13
2023-02-06T20:39:50.457Z,74.71
2023-02-06T20:43:32.110Z,74.79
2023-02-06T20:47:13.440Z,74.95
2023-02-06T20:50:58.941Z,74.45
2023-02-06T20:54:40.477Z,74.57
2023-02-06T20:58:03.072Z,74.98
2023-02-06T21:01:40.868Z,74.94
2023-02-06T21:05:36.593Z,74.74
2023-02-06T21:09:01.713Z,74.11
2023-02-06T21:12:55.055Z,74.10
2023-02-06T21:16:17.595Z,74.58
2023-02-06T21:19:54.777Z,74.53
2023-02-06T21:23:33.610Z,74.65
2023-02-06T21:27:11.369Z,74.70
2023-02-06T21:31:15.232Z,74.58
2023-02-06T21:34:37.518Z,74.87
2023-02-06T21:38:15.372Z,75.00
2023-02-06T21:42:12.143Z,74.95
2023-02-06T21:45:32.191Z,74.81
2023-02-06T21:49:30.360Z,74.78
2023-02-06T21:52:52.324Z,75.01
2023-02-06T21:56:30.315Z,74.91
2023-02-06T22:00:09.883Z,75.31
2023-02-06T22:03:46.709Z,75.43
2023-02-06T22:07:41.970Z,75.59
2023-02-06T22:11:14.382Z,75.49
2023-02-06T22:15:00.572Z,75.15
2023-02-06T22:18:23.308Z,75.08
2023-02-06T22:22:00.304Z,75.35
2023-02-06T22:25:37.780Z,75.36
2023-02-06T22:29:17.253Z,75.21
2023-02-06T22:32:53.597Z,74.57
2023-02-06T22:36:52.797Z,74.61
2023-02-06T22:40:33.867Z,74.49
2023-02-06T22:43:58.879Z,74.07
2023-02-06T22:47:34.968Z,74.48
2023-02-06T22:51:15.084Z,74.70
2023-02-06T22:55:11.987Z,74.96
2023-02-06T22:58:58.409Z,74.57
2023-02-06T23:02:20.455Z,74.94
2023-02-06T23:06:04.124Z,74.82
2023-02-06T23:09:55.701Z,74.67
2023-02-06T23:13:20.534Z,74.16
2023-02-06T23:17:00.804Z,74.72
2023-02-06T23:20:36.356Z,74.80
2023-02-06T23:24:12.198Z,74.04
2023-02-06T23:27:49.122Z,74.19
2023-02-06T23:31:27.555Z,74.67
2023-02-06T23:35:04.682Z,74.57
2023-02-06T23:39:02.135Z,74.57
2023-02-06T23:42:43.535Z,74.19
2023-02-06T23:46:25.795Z,74.15
2023-02-06T23:50:07.699Z,74.64
2023-02-06T23:53:49.603Z,74.89
2023-02-06T23:57:12.029Z,74.72
